Time;durP1;ratioP1;P1;durP2;ratioP2;P2;SDS_P1;SDS_P2;PMS_P1;PMS_P2;Temp;Humidity;BMP_temperature;BMP_pressure;BME280_temperature;BME280_humidity;BME280_pressure;Samples;Min_cycle;Max_cycle;Signal;HPM_P1;HPM_P2
2022/11/23 00:00:01;;;;;;;16.75;11.63;;;7.80;99.90;;;;;;5072959;28;20086;-53
2022/11/23 00:02:26;;;;;;;15.88;11.20;;;7.80;99.90;;;;;;5064052;28;20390;-51
2022/11/23 00:04:52;;;;;;;16.95;10.63;;;7.80;99.90;;;;;;5074035;28;20064;-53
2022/11/23 00:07:17;;;;;;;16.55;10.98;;;7.80;99.90;;;;;;5073983;28;20371;-53
2022/11/23 00:09:43;;;;;;;14.60;10.77;;;7.80;99.90;;;;;;5071803;28;20040;-50
2022/11/23 00:12:09;;;;;;;17.00;10.95;;;7.80;99.90;;;;;;5072491;28;20044;-50
2022/11/23 00:14:34;;;;;;;14.32;10.15;;;7.80;99.90;;;;;;5073351;28;20502;-49
2022/11/23 00:17:00;;;;;;;19.30;10.63;;;7.90;99.90;;;;;;5072954;28;20055;-49
2022/11/23 00:19:26;;;;;;;15.25;10.27;;;7.90;99.90;;;;;;5073280;28;20040;-49
2022/11/23 00:21:51;;;;;;;13.52;9.77;;;7.90;99.90;;;;;;5074501;28;20482;-49
2022/11/23 00:24:17;;;;;;;14.50;9.77;;;7.90;99.90;;;;;;5074368;28;20044;-50
2022/11/23 00:26:42;;;;;;;12.88;9.93;;;7.90;99.90;;;;;;5074248;28;20520;-49
2022/11/23 00:29:08;;;;;;;11.95;9.38;;;7.90;99.90;;;;;;5074167;28;20032;-49
2022/11/23 00:31:34;;;;;;;12.40;8.95;;;7.90;99.90;;;;;;5073963;28;20037;-50
2022/11/23 00:34:01;;;;;;;15.82;9.85;;;7.90;99.90;;;;;;5073960;28;20051;-50
2022/11/23 00:36:27;;;;;;;9.57;8.55;;;8.00;99.90;;;;;;5073091;28;20478;-50
2022/11/23 00:38:53;;;;;;;14.32;9.82;;;8.00;99.90;;;;;;5074126;28;20119;-50
2022/11/23 00:41:24;;;;;;;11.82;8.93;;;8.00;99.90;;;;;;5073936;28;20052;-49
2022/11/23 00:43:50;;;;;;;12.13;9.77;;;8.00;99.90;;;;;;5073568;28;20040;-51
2022/11/23 00:46:28;;;;;;;13.25;9.40;;;8.00;99.90;;;;;;5073881;28;20174;-51
2022/11/23 00:48:55;;;;;;;11.77;8.93;;;7.90;99.90;;;;;;5069563;28;20043;-50
2022/11/23 00:51:23;;;;;;;10.85;8.82;;;8.00;99.90;;;;;;5073122;28;20063;-49
2022/11/23 00:53:50;;;;;;;;;;;8.00;99.90;;;;;;5055143;28;20083;-50
2022/11/23 00:56:15;;;;;;;9.52;8.43;;;8.00;99.90;;;;;;5072736;28;19971;-51
2022/11/23 00:58:41;;;;;;;12.65;9.10;;;8.00;99.90;;;;;;5071084;28;20422;-53
2022/11/23 01:01:11;;;;;;;11.70;9.32;;;8.00;99.90;;;;;;5065429;28;20033;-50
2022/11/23 01:03:46;;;;;;;10.90;8.80;;;8.00;99.90;;;;;;5052181;28;20076;-49
2022/11/23 01:06:14;;;;;;;12.68;8.73;;;8.00;99.90;;;;;;5072913;28;20083;-50
2022/11/23 01:08:40;;;;;;;9.57;8.52;;;8.00;99.90;;;;;;5072496;28;20052;-51
2022/11/23 01:11:09;;;;;;;11.20;8.73;;;8.00;99.90;;;;;;5071995;28;20404;-51
2022/11/23 01:13:36;;;;;;;8.88;8.00;;;8.00;99.90;;;;;;5071651;28;20487;-50
2022/11/23 01:16:02;;;;;;;9.13;8.10;;;8.00;99.90;;;;;;5072354;28;20037;-54
2022/11/23 01:18:28;;;;;;;9.10;7.97;;;8.00;99.90;;;;;;5070616;28;20040;-53
2022/11/23 01:20:54;;;;;;;11.35;8.38;;;8.00;99.90;;;;;;5072737;28;20048;-52
2022/11/23 01:23:19;;;;;;;10.30;8.85;;;8.00;99.90;;;;;;5072179;28;20119;-49
2022/11/23 01:25:46;;;;;;;13.70;9.73;;;8.00;99.90;;;;;;5072240;28;20117;-52
2022/11/23 01:28:11;;;;;;;10.95;9.85;;;8.00;99.90;;;;;;5072105;28;20175;-49
2022/11/23 01:30:37;;;;;;;12.60;10.35;;;8.00;99.90;;;;;;5072097;28;20135;-49
2022/11/23 01:33:03;;;;;;;11.60;9.65;;;8.00;99.90;;;;;;5072136;28;20029;-49
2022/11/23 01:35:29;;;;;;;13.02;9.88;;;8.00;99.90;;;;;;5071750;28;20406;-49
2022/11/23 01:37:55;;;;;;;12.85;10.05;;;8.00;99.90;;;;;;5071828;28;20037;-49
2022/11/23 01:40:21;;;;;;;11.15;9.25;;;8.00;99.90;;;;;;5070705;28;20051;-49
2022/11/23 01:43:00;;;;;;;12.77;9.50;;;8.00;99.90;;;;;;5070807;28;20483;-49
2022/11/23 01:45:36;;;;;;;12.52;8.90;;;8.00;99.90;;;;;;5060199;28;20491;-49
2022/11/23 01:48:24;;;;;;;11.20;10.07;;;8.00;99.90;;;;;;5072152;28;20047;-49
2022/11/23 01:50:51;;;;;;;14.93;10.23;;;8.00;99.90;;;;;;5070780;28;20048;-49
2022/11/23 01:53:18;;;;;;;11.07;9.30;;;8.10;99.90;;;;;;5071056;28;20611;-50
2022/11/23 01:55:47;;;;;;;11.98;9.13;;;8.00;99.90;;;;;;5071847;28;20106;-50
2022/11/23 01:58:16;;;;;;;9.63;8.63;;;8.00;99.90;;;;;;5072756;28;20094;-49
2022/11/23 02:00:43;;;;;;;10.50;9.40;;;8.00;99.90;;;;;;5064594;28;20041;-50
2022/11/23 02:03:09;;;;;;;10.50;9.32;;;8.00;99.90;;;;;;5066209;28;20049;-53
2022/11/23 02:05:42;;;;;;;12.73;9.95;;;8.10;99.90;;;;;;5070305;28;20036;-50
2022/11/23 02:08:08;;;;;;;12.40;9.70;;;8.10;99.90;;;;;;5071912;28;20072;-50
2022/11/23 02:10:35;;;;;;;14.98;9.90;;;8.10;99.90;;;;;;5071905;28;20040;-53
2022/11/23 02:13:05;;;;;;;11.70;10.55;;;8.10;99.90;;;;;;5069702;28;20040;-50
2022/11/23 02:15:32;;;;;;;11.27;9.25;;;8.10;99.90;;;;;;5072094;28;20047;-50
2022/11/23 02:18:01;;;;;;;12.20;10.13;;;8.10;99.90;;;;;;5071265;28;20437;-49
2022/11/23 02:20:26;;;;;;;13.25;10.20;;;8.10;99.90;;;;;;5072282;28;20040;-51
2022/11/23 02:22:58;;;;;;;13.57;10.90;;;8.10;99.90;;;;;;5072642;28;20181;-49
2022/11/23 02:25:42;;;;;;;13.50;10.43;;;8.10;99.90;;;;;;5072371;28;20124;-51
2022/11/23 02:28:12;;;;;;;11.90;10.40;;;8.10;99.90;;;;;;5054839;28;20052;-49
2022/11/23 02:30:39;;;;;;;12.05;10.13;;;8.10;99.90;;;;;;5071999;28;20462;-54
2022/11/23 02:33:05;;;;;;;10.20;9.15;;;8.10;99.90;;;;;;5072681;28;20241;-50
2022/11/23 02:35:32;;;;;;;13.65;9.40;;;8.10;99.90;;;;;;5054426;28;20036;-49
2022/11/23 02:38:00;;;;;;;10.45;8.88;;;8.10;99.90;;;;;;5072450;28;20041;-49
2022/11/23 02:40:34;;;;;;;11.68;8.88;;;8.10;99.90;;;;;;5072274;28;20504;-50
2022/11/23 02:43:00;;;;;;;13.80;10.10;;;8.10;99.90;;;;;;5072264;28;20051;-49
2022/11/23 02:45:42;;;;;;;12.65;9.35;;;8.10;99.90;;;;;;5072296;28;20054;-49
2022/11/23 02:48:08;;;;;;;9.90;8.88;;;8.20;99.90;;;;;;5072040;28;20040;-49
2022/11/23 02:50:33;;;;;;;11.05;9.93;;;8.10;99.90;;;;;;5071748;28;20382;-49
2022/11/23 02:52:59;;;;;;;13.00;9.95;;;8.20;99.90;;;;;;5064209;28;20033;-50
2022/11/23 02:55:24;;;;;;;12.43;10.52;;;8.10;99.90;;;;;;5075965;28;20170;-49
2022/11/23 02:57:50;;;;;;;12.07;9.98;;;8.10;99.90;;;;;;5073967;28;20043;-52
2022/11/23 03:00:17;;;;;;;14.48;10.77;;;8.20;99.90;;;;;;5057669;28;20042;-50
2022/11/23 03:02:42;;;;;;;16.73;11.25;;;8.20;99.90;;;;;;5075167;28;20097;-52
2022/11/23 03:05:08;;;;;;;13.57;10.73;;;8.20;99.90;;;;;;5075200;28;20049;-49
2022/11/23 03:07:34;;;;;;;12.23;10.85;;;8.20;99.90;;;;;;5075901;28;20360;-51
2022/11/23 03:09:59;;;;;;;13.70;11.68;;;8.20;99.90;;;;;;5067327;28;20037;-50
2022/11/23 03:12:25;;;;;;;14.27;10.77;;;8.20;99.90;;;;;;5078654;28;20041;-55
2022/11/23 03:14:50;;;;;;;16.98;11.55;;;8.20;99.90;;;;;;5078933;28;20044;-54
2022/11/23 03:17:16;;;;;;;18.60;11.68;;;8.20;99.90;;;;;;5075462;28;20045;-52
2022/11/23 03:19:42;;;;;;;15.52;12.23;;;8.20;99.90;;;;;;5076113;28;20040;-50
2022/11/23 03:22:07;;;;;;;19.33;13.30;;;8.20;99.90;;;;;;5075147;28;20036;-53
2022/11/23 03:24:33;;;;;;;16.08;12.13;;;8.20;99.90;;;;;;5074603;28;20040;-53
2022/11/23 03:26:59;;;;;;;17.85;13.00;;;8.20;99.90;;;;;;5059881;28;20033;-54
2022/11/23 03:29:25;;;;;;;20.42;13.30;;;8.20;99.90;;;;;;5074310;28;20211;-52
2022/11/23 03:31:54;;;;;;;18.73;13.23;;;8.20;99.90;;;;;;5073784;28;20056;-54
2022/11/23 03:34:20;;;;;;;18.13;13.55;;;8.30;99.90;;;;;;5075165;28;20437;-53
2022/11/23 03:36:46;;;;;;;21.15;13.90;;;8.30;99.90;;;;;;5074705;28;20170;-51
2022/11/23 03:39:11;;;;;;;23.17;13.63;;;8.20;99.90;;;;;;5074041;28;20041;-50
2022/11/23 03:41:37;;;;;;;19.60;13.05;;;8.30;99.90;;;;;;5073902;28;20451;-51
2022/11/23 03:44:03;;;;;;;22.33;13.18;;;8.20;99.90;;;;;;5073323;28;20041;-51
2022/11/23 03:46:29;;;;;;;20.60;12.80;;;8.30;99.90;;;;;;5074150;28;20052;-52
2022/11/23 03:48:54;;;;;;;16.90;12.95;;;8.30;99.90;;;;;;5073368;28;20036;-50
2022/11/23 03:51:20;;;;;;;24.50;13.75;;;8.30;99.90;;;;;;5074590;28;20166;-49
2022/11/23 03:53:45;;;;;;;18.27;13.10;;;8.30;99.90;;;;;;5056086;28;20170;-49
2022/11/23 03:56:11;;;;;;;19.67;13.20;;;8.30;99.90;;;;;;5072531;28;20040;-49
2022/11/23 03:58:37;;;;;;;19.65;12.98;;;8.20;99.90;;;;;;5075046;28;20371;-49
2022/11/23 04:01:02;;;;;;;20.08;13.07;;;8.20;99.90;;;;;;5074455;28;20037;-49
2022/11/23 04:03:28;;;;;;;21.08;13.90;;;8.30;99.90;;;;;;5072630;28;20088;-54
2022/11/23 04:05:54;;;;;;;17.55;12.50;;;8.30;99.90;;;;;;5074668;28;20546;-54
2022/11/23 04:08:20;;;;;;;20.80;13.65;;;8.20;99.90;;;;;;5073817;28;20040;-50
2022/11/23 04:10:45;;;;;;;20.55;13.25;;;8.20;99.90;;;;;;5069711;28;20128;-50
2022/11/23 04:13:11;;;;;;;19.63;13.25;;;8.20;99.90;;;;;;5066784;28;20451;-52
2022/11/23 04:15:37;;;;;;;23.38;13.65;;;8.30;99.90;;;;;;5070371;28;20054;-50
2022/11/23 04:18:03;;;;;;;20.98;13.57;;;8.20;99.90;;;;;;5070074;28;20033;-53
2022/11/23 04:20:28;;;;;;;21.23;14.30;;;8.30;99.90;;;;;;5068793;28;20040;-53
2022/11/23 04:22:54;;;;;;;25.73;13.73;;;8.30;99.90;;;;;;5069749;28;20437;-49
2022/11/23 04:25:19;;;;;;;22.25;13.73;;;8.20;99.90;;;;;;5069932;28;20057;-50
2022/11/23 04:27:45;;;;;;;21.17;13.45;;;8.20;99.90;;;;;;5070907;28;20076;-51
2022/11/23 04:30:11;;;;;;;17.95;12.52;;;8.30;99.90;;;;;;5068942;28;20062;-51
2022/11/23 04:32:37;;;;;;;23.20;13.55;;;8.30;99.90;;;;;;5050819;28;20098;-53
2022/11/23 04:35:03;;;;;;;18.60;13.27;;;8.30;99.90;;;;;;5067582;28;20394;-53
2022/11/23 04:37:28;;;;;;;26.23;13.93;;;8.30;99.90;;;;;;5070220;28;20427;-53
2022/11/23 04:39:54;;;;;;;21.35;13.07;;;8.30;99.90;;;;;;5068936;28;20094;-51
2022/11/23 04:42:20;;;;;;;23.65;13.05;;;8.30;99.90;;;;;;5069426;28;20048;-52
2022/11/23 04:44:45;;;;;;;21.85;12.55;;;8.30;99.90;;;;;;5069615;28;20128;-54
2022/11/23 04:47:11;;;;;;;18.17;12.50;;;8.30;99.90;;;;;;5068032;28;20082;-51
2022/11/23 04:49:37;;;;;;;19.17;12.23;;;8.30;99.90;;;;;;5068377;28;20170;-52
2022/11/23 04:52:03;;;;;;;20.67;12.00;;;8.20;99.90;;;;;;5067787;28;20120;-54
2022/11/23 04:54:28;;;;;;;21.92;11.50;;;8.30;99.90;;;;;;5067397;28;20040;-52
2022/11/23 04:56:55;;;;;;;23.23;11.82;;;8.20;99.90;;;;;;5069414;28;20040;-49
2022/11/23 04:59:21;;;;;;;20.55;10.32;;;8.20;99.90;;;;;;5068403;28;20051;-49
2022/11/23 05:01:48;;;;;;;19.92;9.82;;;8.20;99.90;;;;;;5070974;28;20174;-49
2022/11/23 05:04:14;;;;;;;17.60;9.25;;;8.20;99.90;;;;;;5071674;28;20416;-49
2022/11/23 05:06:39;;;;;;;17.88;8.98;;;8.20;99.90;;;;;;5073638;28;20111;-49
2022/11/23 05:09:05;;;;;;;14.27;8.27;;;8.20;99.90;;;;;;5061919;28;20041;-49
2022/11/23 05:11:31;;;;;;;15.25;8.77;;;8.20;99.90;;;;;;5072682;28;20037;-51
2022/11/23 05:13:56;;;;;;;15.30;7.47;;;8.10;99.90;;;;;;5072442;28;20040;-50
2022/11/23 05:16:22;;;;;;;15.02;7.75;;;8.10;99.90;;;;;;5069976;28;20041;-52
2022/11/23 05:18:47;;;;;;;17.52;7.20;;;8.10;99.90;;;;;;5072292;28;20036;-50
2022/11/23 05:21:13;;;;;;;17.10;7.35;;;8.00;99.90;;;;;;5073316;28;20052;-50
2022/11/23 05:23:38;;;;;;;12.60;6.95;;;8.00;99.90;;;;;;5072317;28;20466;-50
2022/11/23 05:26:04;;;;;;;16.27;6.22;;;8.00;99.90;;;;;;5072583;28;20063;-52
2022/11/23 05:28:30;;;;;;;13.35;6.43;;;7.90;99.90;;;;;;5072508;28;20036;-50
2022/11/23 05:30:55;;;;;;;10.95;6.13;;;7.90;99.90;;;;;;5072851;28;20143;-54
2022/11/23 05:33:21;;;;;;;17.60;7.75;;;7.80;99.90;;;;;;5071124;28;20406;-50
2022/11/23 05:35:47;;;;;;;15.75;7.40;;;7.80;99.90;;;;;;5073084;28;20559;-50
2022/11/23 05:38:12;;;;;;;16.70;6.85;;;7.70;99.90;;;;;;5071823;28;20051;-52
2022/11/23 05:40:38;;;;;;;13.80;6.63;;;7.70;99.90;;;;;;5071837;28;20443;-50
2022/11/23 05:43:04;;;;;;;12.30;5.65;;;7.70;99.90;;;;;;5068360;28;20048;-49
2022/11/23 05:45:29;;;;;;;17.75;5.75;;;7.70;99.90;;;;;;5071087;28;20382;-49
2022/11/23 05:47:57;;;;;;;10.23;5.68;;;7.80;99.90;;;;;;5072748;28;20057;-50
2022/11/23 05:50:26;;;;;;;16.58;6.18;;;7.70;99.90;;;;;;5071782;28;20041;-53
2022/11/23 05:52:54;;;;;;;14.20;5.75;;;7.60;99.90;;;;;;5072742;28;20089;-51
2022/11/23 05:55:19;;;;;;;15.98;6.03;;;7.50;99.90;;;;;;5052594;28;20119;-49
2022/11/23 05:57:45;;;;;;;16.98;6.03;;;;;;;;;;5072729;28;20116;-51
2022/11/23 06:00:11;;;;;;;13.70;5.40;;;7.40;99.90;;;;;;5069405;28;20070;-51
2022/11/23 06:02:38;;;;;;;17.50;6.35;;;7.30;99.90;;;;;;5072028;28;20058;-50
2022/11/23 06:05:04;;;;;;;13.77;6.07;;;7.30;99.90;;;;;;5053684;28;20047;-49
2022/11/23 06:07:33;;;;;;;16.08;6.38;;;7.20;99.90;;;;;;5072023;28;20044;-49
2022/11/23 06:09:59;;;;;;;15.25;5.85;;;7.20;99.90;;;;;;5053893;28;20075;-50
2022/11/23 06:12:25;;;;;;;17.77;5.72;;;7.10;99.90;;;;;;5071850;28;20068;-49
2022/11/23 06:14:51;;;;;;;14.60;5.95;;;7.10;99.90;;;;;;5071691;28;20040;-52
2022/11/23 06:17:16;;;;;;;12.65;6.00;;;7.10;99.90;;;;;;5054012;28;20093;-50
2022/11/23 06:19:42;;;;;;;13.45;5.82;;;7.10;99.90;;;;;;5072400;28;20052;-50
2022/11/23 06:22:08;;;;;;;13.55;6.05;;;7.00;99.90;;;;;;5072396;28;20041;-51
2022/11/23 06:24:33;;;;;;;15.93;6.07;;;7.00;99.90;;;;;;5054336;28;20048;-54
2022/11/23 06:26:59;;;;;;;16.95;6.55;;;7.00;99.90;;;;;;5074439;28;20045;-50
2022/11/23 06:29:25;;;;;;;14.32;6.40;;;7.00;99.90;;;;;;5076707;28;20052;-51
2022/11/23 06:31:50;;;;;;;18.40;6.30;;;7.00;99.90;;;;;;5076285;28;20041;-50
2022/11/23 06:34:16;;;;;;;19.63;5.97;;;7.00;99.90;;;;;;5076148;28;20044;-53
2022/11/23 06:36:42;;;;;;;18.75;6.15;;;7.00;99.90;;;;;;5076367;28;20158;-51
2022/11/23 06:39:08;;;;;;;16.92;5.80;;;7.00;99.90;;;;;;5076328;28;20072;-49
2022/11/23 06:41:33;;;;;;;14.52;5.68;;;7.00;99.90;;;;;;5076398;28;20538;-54
2022/11/23 06:43:59;;;;;;;19.38;6.50;;;7.00;99.90;;;;;;5076256;28;20143;-53
2022/11/23 06:46:25;;;;;;;14.80;5.82;;;6.90;99.90;;;;;;5075798;28;20051;-51
2022/11/23 06:48:50;;;;;;;15.32;5.28;;;6.90;99.90;;;;;;5075824;28;20119;-49
2022/11/23 06:51:16;;;;;;;15.98;6.00;;;6.90;99.90;;;;;;5073305;28;20036;-51
2022/11/23 06:53:41;;;;;;;11.38;5.63;;;6.80;99.90;;;;;;5073729;28;20045;-52
2022/11/23 06:56:07;;;;;;;15.07;5.63;;;6.80;99.90;;;;;;5074530;28;20124;-49
2022/11/23 06:58:34;;;;;;;20.15;6.93;;;6.90;99.90;;;;;;5075090;28;20044;-52
2022/11/23 07:01:01;;;;;;;16.25;6.68;;;6.90;99.90;;;;;;5075233;28;20044;-50
2022/11/23 07:03:26;;;;;;;20.65;6.18;;;7.00;99.90;;;;;;5073452;28;20050;-49
2022/11/23 07:05:52;;;;;;;18.40;6.32;;;7.00;99.90;;;;;;5072190;28;20033;-51
2022/11/23 07:08:18;;;;;;;14.82;6.43;;;7.10;99.90;;;;;;5071275;28;20517;-50
2022/11/23 07:10:43;;;;;;;13.30;6.57;;;7.20;99.90;;;;;;5066681;28;20537;-52
2022/11/23 07:13:10;;;;;;;13.30;6.40;;;7.20;99.90;;;;;;5071255;28;20528;-49
2022/11/23 07:15:36;;;;;;;18.13;5.90;;;7.30;99.90;;;;;;5061006;28;20455;-51
2022/11/23 07:18:02;;;;;;;16.08;6.20;;;7.30;99.90;;;;;;5049506;28;20044;-53
2022/11/23 07:20:28;;;;;;;13.60;6.22;;;7.40;99.90;;;;;;5070609;28;20072;-54
2022/11/23 07:23:00;;;;;;;11.00;5.20;;;7.40;99.90;;;;;;5072018;28;20068;-52
2022/11/23 07:25:27;;;;;;;18.67;6.40;;;7.50;99.90;;;;;;5072843;28;20045;-53
2022/11/23 07:27:57;;;;;;;12.95;6.18;;;7.50;99.90;;;;;;5073646;28;20045;-52
2022/11/23 07:30:23;;;;;;;20.10;6.80;;;7.60;99.90;;;;;;5073412;28;20574;-53
2022/11/23 07:32:49;;;;;;;18.55;6.32;;;7.70;99.90;;;;;;5075416;28;20079;-53
2022/11/23 07:35:14;;;;;;;16.40;5.82;;;7.70;99.90;;;;;;5072625;28;20060;-53
2022/11/23 07:37:40;;;;;;;14.27;5.47;;;7.70;99.90;;;;;;5071541;28;20036;-51
2022/11/23 07:40:06;;;;;;;19.08;5.55;;;7.80;99.90;;;;;;5070659;28;20128;-54
2022/11/23 07:42:32;;;;;;;14.45;5.63;;;7.90;99.90;;;;;;5071830;28;20438;-50
2022/11/23 07:44:57;;;;;;;17.33;6.00;;;7.90;99.90;;;;;;5067409;28;20119;-51
2022/11/23 07:47:23;;;;;;;10.85;5.55;;;7.90;99.90;;;;;;5070913;28;20032;-54
2022/11/23 07:49:49;;;;;;;14.93;5.18;;;8.00;99.90;;;;;;5070644;28;20036;-54
2022/11/23 07:52:14;;;;;;;11.73;4.63;;;8.00;99.90;;;;;;5070066;28;21012;-52
2022/11/23 07:54:40;;;;;;;16.77;5.65;;;8.00;99.90;;;;;;5071104;28;20044;-53
2022/11/23 07:57:05;;;;;;;13.25;5.57;;;8.00;99.90;;;;;;5074150;28;20114;-50
2022/11/23 07:59:31;;;;;;;15.75;4.90;;;8.10;99.90;;;;;;5073519;28;20039;-50
2022/11/23 08:01:56;;;;;;;17.35;5.07;;;8.10;99.90;;;;;;5074900;28;20044;-52
2022/11/23 08:04:22;;;;;;;14.90;4.90;;;8.10;99.90;;;;;;5071374;28;20041;-54
2022/11/23 08:06:48;;;;;;;16.08;5.05;;;8.20;99.90;;;;;;5073775;28;20033;-51
2022/11/23 08:09:14;;;;;;;16.73;5.65;;;8.20;99.90;;;;;;5074748;28;20036;-52
2022/11/23 08:11:40;;;;;;;17.70;5.63;;;;;;;;;;5065731;28;20048;-51
2022/11/23 08:14:05;;;;;;;15.30;4.82;;;8.30;99.90;;;;;;5073313;28;20437;-51
2022/11/23 08:16:31;;;;;;;19.35;5.00;;;8.30;99.90;;;;;;5063952;28;20043;-51
2022/11/23 08:18:56;;;;;;;20.80;5.22;;;8.30;99.90;;;;;;5073734;28;20094;-52
2022/11/23 08:21:22;;;;;;;14.32;5.00;;;8.40;99.90;;;;;;5070507;28;20048;-51
2022/11/23 08:23:48;;;;;;;17.95;5.30;;;8.40;99.90;;;;;;5071676;28;20570;-50
2022/11/23 08:26:13;;;;;;;15.90;4.85;;;8.70;99.90;;;;;;5054196;28;20040;-53
2022/11/23 08:28:39;;;;;;;15.48;5.07;;;8.50;99.90;;;;;;5074020;28;20482;-54
2022/11/23 08:31:10;;;;;;;16.70;4.82;;;8.50;99.90;;;;;;5072029;28;20048;-51
2022/11/23 08:33:35;;;;;;;15.82;4.95;;;8.50;99.90;;;;;;5072253;28;20080;-52
2022/11/23 08:36:06;;;;;;;17.25;4.88;;;8.60;99.90;;;;;;5074089;28;20485;-51
2022/11/23 08:38:34;;;;;;;20.88;5.18;;;8.70;99.90;;;;;;5055263;28;20048;-50
2022/11/23 08:41:01;;;;;;;14.65;4.35;;;8.70;99.90;;;;;;5074499;28;20052;-50
2022/11/23 08:43:27;;;;;;;17.13;4.30;;;8.70;99.90;;;;;;5072797;28;20111;-51
2022/11/23 08:45:55;;;;;;;16.15;3.95;;;8.70;99.90;;;;;;5075274;28;20093;-52
2022/11/23 08:48:20;;;;;;;11.98;4.13;;;8.70;99.90;;;;;;5072333;28;20111;-50
2022/11/23 08:50:46;;;;;;;14.50;4.47;;;8.70;99.90;;;;;;5072903;28;20155;-51
2022/11/23 08:53:11;;;;;;;14.40;3.88;;;8.70;99.90;;;;;;5071357;28;20037;-51
2022/11/23 08:55:37;;;;;;;14.50;3.92;;;8.70;99.90;;;;;;5073413;28;20123;-51
2022/11/23 08:58:03;;;;;;;13.02;3.67;;;8.70;99.90;;;;;;5071721;28;20162;-52
2022/11/23 09:00:28;;;;;;;14.30;3.80;;;8.70;99.90;;;;;;5072388;28;20052;-50
2022/11/23 09:02:57;;;;;;;12.63;3.70;;;8.70;99.90;;;;;;5070992;28;20036;-51
2022/11/23 09:05:24;;;;;;;16.23;4.60;;;8.70;99.90;;;;;;5064954;28;20089;-51
2022/11/23 09:07:49;;;;;;;16.25;3.92;;;8.70;99.90;;;;;;5072997;28;20041;-50
2022/11/23 09:10:15;;;;;;;12.43;3.33;;;8.70;99.90;;;;;;5060804;28;20052;-52
2022/11/23 09:12:41;;;;;;;15.40;4.15;;;8.70;99.90;;;;;;5041991;28;20033;-50
2022/11/23 09:15:08;;;;;;;18.85;4.00;;;8.70;99.90;;;;;;5073276;28;20045;-50
2022/11/23 09:17:33;;;;;;;15.07;3.70;;;8.70;99.90;;;;;;5054369;28;20045;-51
2022/11/23 09:19:59;;;;;;;18.77;4.50;;;8.70;99.90;;;;;;5071925;28;20109;-50
2022/11/23 09:22:25;;;;;;;16.80;4.10;;;8.70;99.90;;;;;;5071076;28;20036;-50
2022/11/23 09:24:52;;;;;;;16.80;3.30;;;8.80;99.90;;;;;;5070526;28;20489;-50
2022/11/23 09:27:18;;;;;;;16.85;4.10;;;8.80;99.90;;;;;;5072354;28;20090;-50
2022/11/23 09:29:44;;;;;;;12.90;3.45;;;8.80;99.90;;;;;;5069421;28;20036;-50
2022/11/23 09:32:09;;;;;;;15.50;3.80;;;8.80;99.90;;;;;;5069695;28;20041;-53
2022/11/23 09:34:35;;;;;;;18.98;3.53;;;8.80;99.90;;;;;;5068819;28;20036;-50
2022/11/23 09:37:01;;;;;;;13.48;3.72;;;8.80;99.90;;;;;;5072004;28;20375;-50
2022/11/23 09:39:26;;;;;;;16.15;3.67;;;8.80;99.90;;;;;;5072753;28;20044;-52
2022/11/23 09:42:07;;;;;;;17.83;4.03;;;8.90;99.90;;;;;;5071684;28;20063;-50
2022/11/23 09:45:01;;;;;;;14.07;3.47;;;8.90;99.90;;;;;;5070138;28;20044;-51
2022/11/23 09:47:47;;;;;;;14.32;3.60;;;8.90;99.90;;;;;;5061912;28;20050;-54
2022/11/23 09:50:46;;;;;;;16.13;3.58;;;9.00;99.90;;;;;;5070066;28;20368;-51
2022/11/23 09:53:25;;;;;;;14.25;2.90;;;9.00;99.90;;;;;;5067960;28;20433;-50
2022/11/23 09:55:54;;;;;;;13.30;2.58;;;9.10;99.90;;;;;;5069693;28;20047;-55
2022/11/23 09:58:22;;;;;;;13.40;2.83;;;9.10;99.90;;;;;;5071827;28;20048;-53
2022/11/23 10:01:10;;;;;;;;;;;9.10;99.90;;;;;;5071606;28;20107;-52
2022/11/23 10:03:38;;;;;;;16.27;3.50;;;9.20;99.90;;;;;;5071673;28;19935;-53
2022/11/23 10:06:24;;;;;;;18.55;3.65;;;9.30;99.90;;;;;;5058657;28;20041;-50
2022/11/23 10:09:18;;;;;;;12.23;2.80;;;9.70;99.90;;;;;;5072265;28;20115;-55
2022/11/23 10:12:00;;;;;;;14.27;2.80;;;9.40;99.90;;;;;;5065645;28;20075;-55
2022/11/23 10:14:40;;;;;;;15.48;3.00;;;9.50;99.90;;;;;;5070963;28;20102;-51
2022/11/23 10:17:26;;;;;;;12.00;2.85;;;9.80;99.90;;;;;;5072754;28;20056;-51
2022/11/23 10:20:18;;;;;;;12.90;3.20;;;9.60;99.90;;;;;;5072241;28;20135;-52
2022/11/23 10:23:06;;;;;;;16.77;3.72;;;9.60;99.90;;;;;;5020325;28;20387;-53
2022/11/23 10:25:39;;;;;;;14.13;2.97;;;9.70;99.90;;;;;;5067313;28;20044;-52
2022/11/23 10:28:13;;;;;;;11.57;3.00;;;9.90;99.90;;;;;;5072031;28;20098;-51
2022/11/23 10:30:39;;;;;;;12.50;3.63;;;9.90;99.90;;;;;;5070076;28;20044;-51
2022/11/23 10:33:30;;;;;;;14.93;2.85;;;9.90;99.90;;;;;;5069523;28;20047;-53
2022/11/23 10:35:56;;;;;;;11.73;3.08;;;9.90;99.90;;;;;;5069350;28;20063;-51
2022/11/23 10:38:25;;;;;;;12.15;3.47;;;9.90;99.90;;;;;;5053845;28;20055;-50
2022/11/23 10:41:02;;;;;;;15.27;3.40;;;10.00;99.90;;;;;;5071437;28;20049;-50
2022/11/23 10:43:56;;;;;;;12.60;2.80;;;10.00;99.90;;;;;;5068725;28;20048;-52
2022/11/23 10:46:22;;;;;;;10.40;2.80;;;;;;;;;;5066579;28;20056;-54
2022/11/23 10:48:50;;;;;;;13.43;2.97;;;;;;;;;;5073029;28;20044;-51
2022/11/23 10:51:20;;;;;;;13.82;3.20;;;;;;;;;;5070311;28;20127;-51
2022/11/23 10:53:57;;;;;;;11.88;3.38;;;10.30;99.90;;;;;;5067763;28;20040;-52
2022/11/23 10:56:22;;;;;;;11.95;3.50;;;10.40;99.90;;;;;;5051615;28;20128;-53
2022/11/23 10:58:48;;;;;;;10.98;2.90;;;10.50;99.90;;;;;;5072015;28;20112;-52
2022/11/23 11:01:25;;;;;;;10.48;2.80;;;10.50;99.90;;;;;;5071355;28;20382;-50
2022/11/23 11:03:58;;;;;;;10.55;2.63;;;10.40;99.90;;;;;;5068876;28;20079;-53
2022/11/23 11:06:26;;;;;;;11.40;2.85;;;10.50;99.90;;;;;;5068088;28;20395;-51
2022/11/23 11:09:01;;;;;;;13.55;2.90;;;10.50;99.90;;;;;;5072253;28;20540;-54
2022/11/23 11:11:37;;;;;;;13.70;3.10;;;10.40;99.90;;;;;;5062208;28;20041;-50
2022/11/23 11:14:16;;;;;;;13.68;2.95;;;10.40;99.90;;;;;;5068344;28;20047;-53
2022/11/23 11:16:53;;;;;;;10.50;2.30;;;10.40;99.90;;;;;;5072835;28;20060;-54
2022/11/23 11:19:24;;;;;;;13.15;2.53;;;10.40;99.90;;;;;;5069182;28;20041;-52
2022/11/23 11:21:50;;;;;;;11.98;2.85;;;10.50;99.90;;;;;;5071396;28;20051;-53
2022/11/23 11:24:43;;;;;;;11.00;2.80;;;10.50;99.90;;;;;;5073561;28;20367;-53
2022/11/23 11:27:19;;;;;;;11.55;2.47;;;10.50;99.90;;;;;;5067670;28;21009;-55
2022/11/23 11:29:47;;;;;;;15.02;2.72;;;10.50;99.90;;;;;;5074360;28;20129;-54
2022/11/23 11:32:15;;;;;;;10.77;2.15;;;10.40;99.90;;;;;;5069731;28;20037;-52
2022/11/23 11:34:59;;;;;;;11.65;2.58;;;10.50;99.90;;;;;;5071915;28;20041;-50
2022/11/23 11:37:44;;;;;;;11.30;2.88;;;10.50;99.90;;;;;;5068743;28;20040;-54
2022/11/23 11:40:19;;;;;;;10.93;2.40;;;10.60;99.90;;;;;;5067663;28;20055;-54
2022/11/23 11:43:10;;;;;;;10.93;2.55;;;10.60;99.90;;;;;;5070160;28;20049;-55
2022/11/23 11:45:40;;;;;;;11.48;2.50;;;10.60;99.90;;;;;;5072229;28;20072;-55
2022/11/23 11:48:31;;;;;;;8.20;2.30;;;10.60;99.90;;;;;;5069691;28;20047;-51
2022/11/23 11:51:20;;;;;;;12.13;2.20;;;10.60;99.90;;;;;;5070798;28;20441;-54
2022/11/23 11:53:52;;;;;;;13.50;3.00;;;10.60;99.90;;;;;;5074010;28;20044;-54
2022/11/23 11:56:29;;;;;;;6.35;2.10;;;10.70;99.90;;;;;;5067306;28;20044;-54
2022/11/23 11:59:01;;;;;;;12.05;2.13;;;10.60;99.90;;;;;;5074383;28;20101;-52
2022/11/23 12:01:43;;;;;;;5.53;1.65;;;10.60;99.90;;;;;;5072368;28;20093;-51
2022/11/23 12:04:26;;;;;;;11.93;2.70;;;10.70;99.90;;;;;;5072399;28;20132;-50
2022/11/23 12:07:17;;;;;;;11.25;2.60;;;10.60;99.90;;;;;;5068257;28;20071;-53
2022/11/23 12:09:49;;;;;;;13.45;2.35;;;10.70;99.90;;;;;;5069402;28;20398;-53
2022/11/23 12:12:17;;;;;;;10.35;2.08;;;10.60;99.90;;;;;;5073597;28;20041;-52
2022/11/23 12:14:43;;;;;;;;;;;10.70;99.90;;;;;;5076336;28;20374;-52
2022/11/23 12:17:37;;;;;;;9.32;2.53;;;10.60;99.90;;;;;;5068655;28;19935;-52
2022/11/23 12:20:27;;;;;;;10.82;2.38;;;10.60;99.90;;;;;;5066721;28;20060;-51
2022/11/23 12:23:32;;;;;;;11.82;2.40;;;10.60;99.90;;;;;;5063064;28;20179;-54
2022/11/23 12:26:22;;;;;;;8.38;1.77;;;10.60;99.90;;;;;;5017176;28;20055;-55
2022/11/23 12:28:51;;;;;;;10.50;2.15;;;10.60;99.90;;;;;;5072897;28;20036;-50
2022/11/23 12:31:23;;;;;;;8.18;2.20;;;10.60;99.90;;;;;;5060161;28;20043;-49
2022/11/23 12:34:03;;;;;;;9.82;2.38;;;10.60;99.90;;;;;;5064475;28;20044;-51
2022/11/23 12:36:50;;;;;;;14.63;3.10;;;10.70;99.90;;;;;;5064911;28;20056;-54
2022/11/23 12:39:40;;;;;;;10.43;2.50;;;10.70;99.90;;;;;;5067649;28;20040;-54
2022/11/23 12:42:15;;;;;;;10.80;2.17;;;10.70;99.90;;;;;;5043327;28;20069;-51
2022/11/23 12:45:12;;;;;;;9.02;2.35;;;10.70;99.90;;;;;;5034491;28;20418;-54
2022/11/23 12:48:03;;;;;;;15.18;2.38;;;10.60;99.90;;;;;;5041314;28;20053;-52
2022/11/23 12:50:56;;;;;;;8.75;1.80;;;10.70;99.90;;;;;;5053846;28;20501;-49
2022/11/23 12:53:36;;;;;;;9.45;2.40;;;10.60;99.90;;;;;;5034158;28;20524;-49
2022/11/23 12:56:14;;;;;;;8.25;1.90;;;10.70;99.90;;;;;;5022868;28;20056;-49